Menzel Bourguiba, Tunisia
Current Conditions -  °F | °C
As of 9:00 AM on Thursday 29 Jan 2015 (Local Time) from DTTB Reporting Station
Scattered Clouds Scattered Clouds  
Wind Chill: 54°   Ceiling: Unl
Heat Index: 54°   Visibility: 6mi
Dew Point: 43°   Wind: 10mph
Humidity: 67%   Direction: 300°WNW
Pressure: 29.94"   Gusts: NA
Location:  37.16°N, 9.79°E
Report Text: DTTB 290800Z 30009KT 9999 SCT016 SCT030 12/06 Q1014
Loading
Personal Weather Stations






























Interactive Weather Map New forecast layout! Learn more

10-Day Weather Forecast

Advertisements
Track Severe Weather on mobile